sensor_id;sensor_type;location;lat;lon;timestamp;P1;durP1;ratioP1;P2;durP2;ratioP2
3068;SDS011;1545;51.728;8.796;2023-03-29T00:02:22;13.90;;;7.40;;
3068;SDS011;1545;51.728;8.796;2023-03-29T00:04:53;13.63;;;6.80;;
3068;SDS011;1545;51.728;8.796;2023-03-29T00:07:25;16.77;;;7.40;;
3068;SDS011;1545;51.728;8.796;2023-03-29T00:09:54;14.37;;;7.40;;
3068;SDS011;1545;51.728;8.796;2023-03-29T00:12:19;12.93;;;7.40;;
3068;SDS011;1545;51.728;8.796;2023-03-29T00:14:45;16.50;;;7.57;;
3068;SDS011;1545;51.728;8.796;2023-03-29T00:17:11;14.20;;;7.67;;
3068;SDS011;1545;51.728;8.796;2023-03-29T00:19:36;12.97;;;7.60;;
3068;SDS011;1545;51.728;8.796;2023-03-29T00:22:02;17.30;;;8.47;;
3068;SDS011;1545;51.728;8.796;2023-03-29T00:24:31;13.53;;;7.77;;
3068;SDS011;1545;51.728;8.796;2023-03-29T00:26:57;12.97;;;7.33;;
3068;SDS011;1545;51.728;8.796;2023-03-29T00:29:22;17.50;;;8.07;;
3068;SDS011;1545;51.728;8.796;2023-03-29T00:31:48;14.50;;;7.00;;
3068;SDS011;1545;51.728;8.796;2023-03-29T00:34:18;19.10;;;7.50;;
3068;SDS011;1545;51.728;8.796;2023-03-29T00:36:44;18.17;;;7.40;;
3068;SDS011;1545;51.728;8.796;2023-03-29T00:39:10;14.87;;;7.00;;
3068;SDS011;1545;51.728;8.796;2023-03-29T00:41:35;13.57;;;7.40;;
3068;SDS011;1545;51.728;8.796;2023-03-29T00:44:02;15.43;;;7.30;;
3068;SDS011;1545;51.728;8.796;2023-03-29T00:46:28;13.03;;;7.40;;
3068;SDS011;1545;51.728;8.796;2023-03-29T00:49:00;14.37;;;7.47;;
3068;SDS011;1545;51.728;8.796;2023-03-29T00:51:31;12.57;;;6.80;;
3068;SDS011;1545;51.728;8.796;2023-03-29T00:54:00;15.37;;;7.53;;
3068;SDS011;1545;51.728;8.796;2023-03-29T00:56:33;13.20;;;7.37;;
3068;SDS011;1545;51.728;8.796;2023-03-29T00:59:44;11.70;;;6.93;;
3068;SDS011;1545;51.728;8.796;2023-03-29T01:01:53;12.60;;;6.73;;
3068;SDS011;1545;51.728;8.796;2023-03-29T01:04:22;13.60;;;7.73;;
3068;SDS011;1545;51.728;8.796;2023-03-29T01:07:01;12.53;;;7.10;;
3068;SDS011;1545;51.728;8.796;2023-03-29T01:09:33;12.27;;;6.90;;
3068;SDS011;1545;51.728;8.796;2023-03-29T01:12:02;14.57;;;7.50;;
3068;SDS011;1545;51.728;8.796;2023-03-29T01:14:37;12.07;;;7.37;;
3068;SDS011;1545;51.728;8.796;2023-03-29T01:17:06;13.53;;;7.23;;
3068;SDS011;1545;51.728;8.796;2023-03-29T01:19:34;14.20;;;7.17;;
3068;SDS011;1545;51.728;8.796;2023-03-29T01:27:52;12.27;;;7.27;;
3068;SDS011;1545;51.728;8.796;2023-03-29T01:33:13;11.20;;;7.67;;
3068;SDS011;1545;51.728;8.796;2023-03-29T01:35:55;15.90;;;7.80;;
3068;SDS011;1545;51.728;8.796;2023-03-29T01:38:29;14.63;;;7.13;;
3068;SDS011;1545;51.728;8.796;2023-03-29T01:41:14;16.00;;;8.03;;
3068;SDS011;1545;51.728;8.796;2023-03-29T01:43:42;13.83;;;8.17;;
3068;SDS011;1545;51.728;8.796;2023-03-29T01:49:06;14.57;;;8.93;;
3068;SDS011;1545;51.728;8.796;2023-03-29T01:51:38;15.00;;;8.37;;
3068;SDS011;1545;51.728;8.796;2023-03-29T01:54:19;16.83;;;9.00;;
3068;SDS011;1545;51.728;8.796;2023-03-29T01:56:52;15.37;;;8.83;;
3068;SDS011;1545;51.728;8.796;2023-03-29T01:59:21;15.03;;;8.97;;
3068;SDS011;1545;51.728;8.796;2023-03-29T02:01:52;16.40;;;9.17;;
3068;SDS011;1545;51.728;8.796;2023-03-29T02:04:24;18.33;;;10.37;;
3068;SDS011;1545;51.728;8.796;2023-03-29T02:06:53;18.07;;;10.43;;
3068;SDS011;1545;51.728;8.796;2023-03-29T02:09:21;16.97;;;9.90;;
3068;SDS011;1545;51.728;8.796;2023-03-29T02:11:47;15.97;;;9.17;;
3068;SDS011;1545;51.728;8.796;2023-03-29T02:14:15;17.60;;;10.20;;
3068;SDS011;1545;51.728;8.796;2023-03-29T02:16:40;15.80;;;9.37;;
3068;SDS011;1545;51.728;8.796;2023-03-29T02:19:06;14.60;;;9.80;;
3068;SDS011;1545;51.728;8.796;2023-03-29T02:24:19;17.00;;;10.37;;
3068;SDS011;1545;51.728;8.796;2023-03-29T02:26:47;14.93;;;9.47;;
3068;SDS011;1545;51.728;8.796;2023-03-29T02:29:13;19.70;;;9.70;;
3068;SDS011;1545;51.728;8.796;2023-03-29T02:31:40;21.90;;;10.73;;
3068;SDS011;1545;51.728;8.796;2023-03-29T02:34:16;16.10;;;10.03;;
3068;SDS011;1545;51.728;8.796;2023-03-29T02:36:51;17.30;;;10.37;;
3068;SDS011;1545;51.728;8.796;2023-03-29T02:39:20;17.97;;;10.13;;
3068;SDS011;1545;51.728;8.796;2023-03-29T02:41:48;16.53;;;9.50;;
3068;SDS011;1545;51.728;8.796;2023-03-29T02:44:16;15.33;;;9.97;;
3068;SDS011;1545;51.728;8.796;2023-03-29T02:46:45;15.47;;;9.73;;
3068;SDS011;1545;51.728;8.796;2023-03-29T02:49:14;15.50;;;10.00;;
3068;SDS011;1545;51.728;8.796;2023-03-29T02:51:40;15.47;;;9.13;;
3068;SDS011;1545;51.728;8.796;2023-03-29T02:54:08;15.37;;;9.27;;
3068;SDS011;1545;51.728;8.796;2023-03-29T02:56:40;15.23;;;8.87;;
3068;SDS011;1545;51.728;8.796;2023-03-29T02:59:07;14.37;;;9.33;;
3068;SDS011;1545;51.728;8.796;2023-03-29T03:01:33;17.53;;;9.40;;
3068;SDS011;1545;51.728;8.796;2023-03-29T03:04:00;16.47;;;9.53;;
3068;SDS011;1545;51.728;8.796;2023-03-29T03:06:27;15.30;;;9.27;;
3068;SDS011;1545;51.728;8.796;2023-03-29T03:08:53;14.57;;;9.23;;
3068;SDS011;1545;51.728;8.796;2023-03-29T03:11:18;16.77;;;9.10;;
3068;SDS011;1545;51.728;8.796;2023-03-29T03:13:44;15.17;;;9.10;;
3068;SDS011;1545;51.728;8.796;2023-03-29T03:16:09;13.17;;;9.17;;
3068;SDS011;1545;51.728;8.796;2023-03-29T03:18:35;17.80;;;9.57;;
3068;SDS011;1545;51.728;8.796;2023-03-29T03:21:00;14.97;;;9.57;;
3068;SDS011;1545;51.728;8.796;2023-03-29T03:23:26;14.77;;;8.77;;
3068;SDS011;1545;51.728;8.796;2023-03-29T03:25:52;14.73;;;9.03;;
3068;SDS011;1545;51.728;8.796;2023-03-29T03:28:19;12.97;;;8.07;;
3068;SDS011;1545;51.728;8.796;2023-03-29T03:30:46;14.10;;;9.23;;
3068;SDS011;1545;51.728;8.796;2023-03-29T03:33:11;13.43;;;9.00;;
3068;SDS011;1545;51.728;8.796;2023-03-29T03:35:37;15.40;;;9.20;;
3068;SDS011;1545;51.728;8.796;2023-03-29T03:38:03;14.00;;;8.60;;
3068;SDS011;1545;51.728;8.796;2023-03-29T03:40:29;17.87;;;9.73;;
3068;SDS011;1545;51.728;8.796;2023-03-29T03:42:56;14.97;;;9.47;;
3068;SDS011;1545;51.728;8.796;2023-03-29T03:45:22;16.10;;;9.43;;
3068;SDS011;1545;51.728;8.796;2023-03-29T03:47:48;14.60;;;9.20;;
3068;SDS011;1545;51.728;8.796;2023-03-29T03:50:14;15.73;;;9.47;;
3068;SDS011;1545;51.728;8.796;2023-03-29T03:52:40;16.10;;;9.13;;
3068;SDS011;1545;51.728;8.796;2023-03-29T03:55:06;13.57;;;8.67;;
3068;SDS011;1545;51.728;8.796;2023-03-29T03:57:32;15.80;;;8.60;;
3068;SDS011;1545;51.728;8.796;2023-03-29T04:00:01;17.57;;;9.23;;
3068;SDS011;1545;51.728;8.796;2023-03-29T04:02:31;18.37;;;9.30;;
3068;SDS011;1545;51.728;8.796;2023-03-29T04:04:57;20.87;;;10.00;;
3068;SDS011;1545;51.728;8.796;2023-03-29T04:07:26;17.80;;;9.30;;
3068;SDS011;1545;51.728;8.796;2023-03-29T04:09:52;17.53;;;9.40;;
3068;SDS011;1545;51.728;8.796;2023-03-29T04:12:18;18.73;;;9.83;;
3068;SDS011;1545;51.728;8.796;2023-03-29T04:14:43;15.03;;;9.30;;
3068;SDS011;1545;51.728;8.796;2023-03-29T04:17:11;16.07;;;8.97;;
3068;SDS011;1545;51.728;8.796;2023-03-29T04:19:36;13.87;;;9.20;;
3068;SDS011;1545;51.728;8.796;2023-03-29T04:22:02;15.03;;;9.47;;
3068;SDS011;1545;51.728;8.796;2023-03-29T04:24:27;21.47;;;9.30;;
3068;SDS011;1545;51.728;8.796;2023-03-29T04:26:53;13.87;;;8.20;;
3068;SDS011;1545;51.728;8.796;2023-03-29T04:29:18;18.17;;;9.60;;
3068;SDS011;1545;51.728;8.796;2023-03-29T04:31:44;16.77;;;8.70;;
3068;SDS011;1545;51.728;8.796;2023-03-29T04:34:09;14.07;;;9.07;;
3068;SDS011;1545;51.728;8.796;2023-03-29T04:36:35;14.03;;;8.70;;
3068;SDS011;1545;51.728;8.796;2023-03-29T04:39:00;13.60;;;8.33;;
3068;SDS011;1545;51.728;8.796;2023-03-29T04:41:28;13.60;;;8.60;;
3068;SDS011;1545;51.728;8.796;2023-03-29T04:43:54;13.47;;;8.03;;
3068;SDS011;1545;51.728;8.796;2023-03-29T04:46:20;15.77;;;8.80;;
3068;SDS011;1545;51.728;8.796;2023-03-29T04:48:49;18.63;;;9.70;;
3068;SDS011;1545;51.728;8.796;2023-03-29T04:51:15;14.80;;;9.00;;
3068;SDS011;1545;51.728;8.796;2023-03-29T04:53:41;15.47;;;8.77;;
3068;SDS011;1545;51.728;8.796;2023-03-29T04:56:07;13.97;;;8.30;;
3068;SDS011;1545;51.728;8.796;2023-03-29T04:58:32;18.73;;;9.10;;
3068;SDS011;1545;51.728;8.796;2023-03-29T05:00:58;14.90;;;8.40;;
3068;SDS011;1545;51.728;8.796;2023-03-29T05:03:23;16.67;;;9.27;;
3068;SDS011;1545;51.728;8.796;2023-03-29T05:05:50;14.17;;;8.93;;
3068;SDS011;1545;51.728;8.796;2023-03-29T05:08:15;15.50;;;8.87;;
3068;SDS011;1545;51.728;8.796;2023-03-29T05:10:41;15.27;;;8.70;;
3068;SDS011;1545;51.728;8.796;2023-03-29T05:13:08;14.37;;;8.23;;
3068;SDS011;1545;51.728;8.796;2023-03-29T05:15:34;14.37;;;7.93;;
3068;SDS011;1545;51.728;8.796;2023-03-29T05:18:00;14.83;;;8.23;;
3068;SDS011;1545;51.728;8.796;2023-03-29T05:20:27;10.87;;;7.40;;
3068;SDS011;1545;51.728;8.796;2023-03-29T05:22:54;12.97;;;8.03;;
3068;SDS011;1545;51.728;8.796;2023-03-29T05:25:20;13.13;;;8.30;;
3068;SDS011;1545;51.728;8.796;2023-03-29T05:27:46;14.77;;;8.23;;
3068;SDS011;1545;51.728;8.796;2023-03-29T05:30:12;14.47;;;7.97;;
3068;SDS011;1545;51.728;8.796;2023-03-29T05:32:39;16.90;;;8.07;;
3068;SDS011;1545;51.728;8.796;2023-03-29T05:35:08;14.47;;;8.17;;
3068;SDS011;1545;51.728;8.796;2023-03-29T05:37:34;17.20;;;8.27;;
3068;SDS011;1545;51.728;8.796;2023-03-29T05:40:00;16.30;;;8.67;;
3068;SDS011;1545;51.728;8.796;2023-03-29T05:42:25;18.33;;;8.10;;
3068;SDS011;1545;51.728;8.796;2023-03-29T05:44:51;17.33;;;7.83;;
3068;SDS011;1545;51.728;8.796;2023-03-29T05:47:17;13.43;;;7.80;;
3068;SDS011;1545;51.728;8.796;2023-03-29T05:49:43;13.00;;;7.70;;
3068;SDS011;1545;51.728;8.796;2023-03-29T05:52:08;13.13;;;7.33;;
3068;SDS011;1545;51.728;8.796;2023-03-29T05:54:34;11.80;;;7.07;;
3068;SDS011;1545;51.728;8.796;2023-03-29T05:56:59;14.07;;;7.33;;
3068;SDS011;1545;51.728;8.796;2023-03-29T05:59:25;15.17;;;7.30;;
3068;SDS011;1545;51.728;8.796;2023-03-29T06:01:52;12.40;;;7.17;;
3068;SDS011;1545;51.728;8.796;2023-03-29T06:04:18;13.93;;;7.03;;
3068;SDS011;1545;51.728;8.796;2023-03-29T06:06:44;12.07;;;7.10;;
3068;SDS011;1545;51.728;8.796;2023-03-29T06:09:10;14.00;;;6.80;;
3068;SDS011;1545;51.728;8.796;2023-03-29T06:11:35;12.37;;;7.13;;
3068;SDS011;1545;51.728;8.796;2023-03-29T06:14:01;11.53;;;6.37;;
3068;SDS011;1545;51.728;8.796;2023-03-29T06:16:26;14.03;;;6.90;;
3068;SDS011;1545;51.728;8.796;2023-03-29T06:18:53;13.17;;;6.27;;
3068;SDS011;1545;51.728;8.796;2023-03-29T06:21:19;13.53;;;6.43;;
3068;SDS011;1545;51.728;8.796;2023-03-29T06:23:45;14.03;;;7.10;;
3068;SDS011;1545;51.728;8.796;2023-03-29T06:26:11;12.60;;;6.37;;
3068;SDS011;1545;51.728;8.796;2023-03-29T06:28:36;11.47;;;6.60;;
3068;SDS011;1545;51.728;8.796;2023-03-29T06:31:05;13.47;;;6.50;;
3068;SDS011;1545;51.728;8.796;2023-03-29T06:33:33;12.60;;;6.30;;
3068;SDS011;1545;51.728;8.796;2023-03-29T06:36:01;12.13;;;6.30;;
3068;SDS011;1545;51.728;8.796;2023-03-29T06:38:27;11.67;;;5.90;;
3068;SDS011;1545;51.728;8.796;2023-03-29T06:40:58;9.73;;;6.90;;
3068;SDS011;1545;51.728;8.796;2023-03-29T06:43:28;15.50;;;6.43;;
3068;SDS011;1545;51.728;8.796;2023-03-29T06:45:54;11.30;;;6.30;;
3068;SDS011;1545;51.728;8.796;2023-03-29T06:48:19;9.33;;;6.07;;
3068;SDS011;1545;51.728;8.796;2023-03-29T06:50:46;15.47;;;5.87;;
3068;SDS011;1545;51.728;8.796;2023-03-29T06:53:13;12.20;;;6.20;;
3068;SDS011;1545;51.728;8.796;2023-03-29T06:55:39;17.03;;;10.17;;
3068;SDS011;1545;51.728;8.796;2023-03-29T06:58:05;16.23;;;9.13;;
3068;SDS011;1545;51.728;8.796;2023-03-29T07:00:32;11.30;;;5.77;;
3068;SDS011;1545;51.728;8.796;2023-03-29T07:03:02;13.17;;;6.07;;
3068;SDS011;1545;51.728;8.796;2023-03-29T07:05:30;9.97;;;5.63;;
3068;SDS011;1545;51.728;8.796;2023-03-29T07:07:56;10.50;;;5.90;;
3068;SDS011;1545;51.728;8.796;2023-03-29T07:10:35;12.27;;;5.80;;
3068;SDS011;1545;51.728;8.796;2023-03-29T07:13:06;14.80;;;6.50;;
3068;SDS011;1545;51.728;8.796;2023-03-29T07:15:34;14.67;;;6.27;;
3068;SDS011;1545;51.728;8.796;2023-03-29T07:18:00;18.03;;;7.27;;
3068;SDS011;1545;51.728;8.796;2023-03-29T07:20:27;11.00;;;6.50;;
3068;SDS011;1545;51.728;8.796;2023-03-29T07:22:52;11.77;;;6.47;;
3068;SDS011;1545;51.728;8.796;2023-03-29T07:25:18;12.50;;;6.73;;
3068;SDS011;1545;51.728;8.796;2023-03-29T07:27:46;12.77;;;7.10;;
3068;SDS011;1545;51.728;8.796;2023-03-29T07:30:16;12.67;;;6.77;;
3068;SDS011;1545;51.728;8.796;2023-03-29T07:32:43;9.37;;;6.37;;
3068;SDS011;1545;51.728;8.796;2023-03-29T07:35:10;15.23;;;7.03;;
3068;SDS011;1545;51.728;8.796;2023-03-29T07:37:37;11.53;;;6.37;;
3068;SDS011;1545;51.728;8.796;2023-03-29T07:40:04;15.87;;;6.77;;
3068;SDS011;1545;51.728;8.796;2023-03-29T07:42:36;13.57;;;6.27;;
3068;SDS011;1545;51.728;8.796;2023-03-29T07:45:05;14.67;;;6.63;;
3068;SDS011;1545;51.728;8.796;2023-03-29T07:47:33;11.50;;;6.00;;
3068;SDS011;1545;51.728;8.796;2023-03-29T07:49:59;15.13;;;7.00;;
3068;SDS011;1545;51.728;8.796;2023-03-29T07:52:25;10.90;;;6.90;;
3068;SDS011;1545;51.728;8.796;2023-03-29T07:54:55;18.10;;;7.97;;
3068;SDS011;1545;51.728;8.796;2023-03-29T07:57:22;16.87;;;8.03;;
3068;SDS011;1545;51.728;8.796;2023-03-29T07:59:48;13.30;;;7.40;;
3068;SDS011;1545;51.728;8.796;2023-03-29T08:02:13;12.30;;;7.13;;
3068;SDS011;1545;51.728;8.796;2023-03-29T08:04:39;15.80;;;7.37;;
3068;SDS011;1545;51.728;8.796;2023-03-29T08:07:05;14.80;;;8.20;;
3068;SDS011;1545;51.728;8.796;2023-03-29T08:09:33;17.97;;;7.43;;
3068;SDS011;1545;51.728;8.796;2023-03-29T08:11:59;14.63;;;7.83;;
3068;SDS011;1545;51.728;8.796;2023-03-29T08:14:25;13.93;;;7.07;;
3068;SDS011;1545;51.728;8.796;2023-03-29T08:16:51;11.90;;;7.37;;
3068;SDS011;1545;51.728;8.796;2023-03-29T08:19:17;11.63;;;6.97;;
3068;SDS011;1545;51.728;8.796;2023-03-29T08:21:43;13.63;;;7.00;;
3068;SDS011;1545;51.728;8.796;2023-03-29T08:24:12;13.93;;;8.00;;
3068;SDS011;1545;51.728;8.796;2023-03-29T08:26:37;15.13;;;7.90;;
3068;SDS011;1545;51.728;8.796;2023-03-29T08:29:03;13.57;;;7.63;;
3068;SDS011;1545;51.728;8.796;2023-03-29T08:31:28;17.87;;;7.97;;
3068;SDS011;1545;51.728;8.796;2023-03-29T08:33:54;16.80;;;7.70;;
3068;SDS011;1545;51.728;8.796;2023-03-29T08:36:20;12.53;;;7.63;;
3068;SDS011;1545;51.728;8.796;2023-03-29T08:38:46;13.03;;;7.93;;
3068;SDS011;1545;51.728;8.796;2023-03-29T08:44:23;17.70;;;7.70;;
3068;SDS011;1545;51.728;8.796;2023-03-29T08:47:16;15.37;;;7.73;;
3068;SDS011;1545;51.728;8.796;2023-03-29T08:49:59;12.07;;;7.60;;
3068;SDS011;1545;51.728;8.796;2023-03-29T08:52:33;16.90;;;7.70;;
3068;SDS011;1545;51.728;8.796;2023-03-29T08:55:02;12.60;;;7.90;;
3068;SDS011;1545;51.728;8.796;2023-03-29T08:57:34;14.57;;;7.40;;
3068;SDS011;1545;51.728;8.796;2023-03-29T09:00:15;15.73;;;7.60;;
3068;SDS011;1545;51.728;8.796;2023-03-29T09:02:45;28.13;;;15.80;;
3068;SDS011;1545;51.728;8.796;2023-03-29T09:05:32;13.17;;;8.00;;
3068;SDS011;1545;51.728;8.796;2023-03-29T09:08:01;12.00;;;6.77;;
3068;SDS011;1545;51.728;8.796;2023-03-29T09:10:30;8.53;;;6.10;;
3068;SDS011;1545;51.728;8.796;2023-03-29T09:13:11;13.37;;;6.53;;
3068;SDS011;1545;51.728;8.796;2023-03-29T09:16:05;9.77;;;6.37;;
3068;SDS011;1545;51.728;8.796;2023-03-29T09:24:51;14.23;;;6.40;;
3068;SDS011;1545;51.728;8.796;2023-03-29T09:27:43;11.57;;;6.07;;
3068;SDS011;1545;51.728;8.796;2023-03-29T09:32:56;15.80;;;5.70;;
3068;SDS011;1545;51.728;8.796;2023-03-29T09:35:31;8.73;;;5.70;;
3068;SDS011;1545;51.728;8.796;2023-03-29T09:38:14;12.30;;;5.50;;
3068;SDS011;1545;51.728;8.796;2023-03-29T09:43:17;12.93;;;5.80;;
3068;SDS011;1545;51.728;8.796;2023-03-29T09:45:57;10.13;;;5.40;;
3068;SDS011;1545;51.728;8.796;2023-03-29T09:48:27;11.43;;;6.00;;
3068;SDS011;1545;51.728;8.796;2023-03-29T09:50:55;12.33;;;6.10;;
3068;SDS011;1545;51.728;8.796;2023-03-29T09:53:21;13.73;;;6.50;;
3068;SDS011;1545;51.728;8.796;2023-03-29T09:55:49;11.90;;;6.18;;
3068;SDS011;1545;51.728;8.796;2023-03-29T09:58:16;14.00;;;6.47;;
3068;SDS011;1545;51.728;8.796;2023-03-29T10:00:49;11.37;;;6.50;;
3068;SDS011;1545;51.728;8.796;2023-03-29T10:03:19;12.40;;;6.80;;
3068;SDS011;1545;51.728;8.796;2023-03-29T10:05:46;15.87;;;7.03;;
3068;SDS011;1545;51.728;8.796;2023-03-29T10:08:59;13.73;;;7.17;;
3068;SDS011;1545;51.728;8.796;2023-03-29T10:11:02;14.40;;;7.07;;
3068;SDS011;1545;51.728;8.796;2023-03-29T10:13:32;13.13;;;6.33;;
3068;SDS011;1545;51.728;8.796;2023-03-29T10:16:07;13.87;;;6.93;;
3068;SDS011;1545;51.728;8.796;2023-03-29T10:18:45;12.97;;;6.70;;
3068;SDS011;1545;51.728;8.796;2023-03-29T10:21:12;15.03;;;6.87;;
3068;SDS011;1545;51.728;8.796;2023-03-29T10:23:41;13.63;;;7.47;;
3068;SDS011;1545;51.728;8.796;2023-03-29T10:29:03;21.33;;;7.70;;
3068;SDS011;1545;51.728;8.796;2023-03-29T10:31:31;19.27;;;8.10;;
3068;SDS011;1545;51.728;8.796;2023-03-29T10:33:59;21.27;;;7.93;;
3068;SDS011;1545;51.728;8.796;2023-03-29T10:36:27;19.47;;;7.97;;
3068;SDS011;1545;51.728;8.796;2023-03-29T10:38:55;16.20;;;7.53;;
3068;SDS011;1545;51.728;8.796;2023-03-29T10:41:22;24.47;;;7.83;;
3068;SDS011;1545;51.728;8.796;2023-03-29T10:43:51;15.10;;;7.97;;
3068;SDS011;1545;51.728;8.796;2023-03-29T10:51:27;30.73;;;8.53;;
3068;SDS011;1545;51.728;8.796;2023-03-29T10:53:56;17.77;;;8.70;;
3068;SDS011;1545;51.728;8.796;2023-03-29T11:06:59;15.90;;;8.47;;
3068;SDS011;1545;51.728;8.796;2023-03-29T11:15:09;17.17;;;9.13;;
3068;SDS011;1545;51.728;8.796;2023-03-29T11:18:02;19.90;;;9.07;;
3068;SDS011;1545;51.728;8.796;2023-03-29T11:20:40;18.37;;;9.13;;
3068;SDS011;1545;51.728;8.796;2023-03-29T11:23:19;18.63;;;9.23;;
3068;SDS011;1545;51.728;8.796;2023-03-29T11:25:58;23.13;;;9.80;;
3068;SDS011;1545;51.728;8.796;2023-03-29T11:37:23;20.33;;;10.00;;
3068;SDS011;1545;51.728;8.796;2023-03-29T11:42:33;21.13;;;9.13;;
3068;SDS011;1545;51.728;8.796;2023-03-29T11:45:02;17.33;;;9.67;;
3068;SDS011;1545;51.728;8.796;2023-03-29T11:47:33;19.37;;;9.97;;
3068;SDS011;1545;51.728;8.796;2023-03-29T11:52:50;16.50;;;9.30;;
3068;SDS011;1545;51.728;8.796;2023-03-29T11:55:35;18.60;;;9.30;;
3068;SDS011;1545;51.728;8.796;2023-03-29T11:58:11;17.20;;;9.50;;
3068;SDS011;1545;51.728;8.796;2023-03-29T12:00:44;13.90;;;8.83;;
3068;SDS011;1545;51.728;8.796;2023-03-29T12:09:21;40.80;;;23.57;;
3068;SDS011;1545;51.728;8.796;2023-03-29T12:12:02;15.30;;;9.37;;
3068;SDS011;1545;51.728;8.796;2023-03-29T12:14:45;15.83;;;8.97;;
3068;SDS011;1545;51.728;8.796;2023-03-29T12:17:14;14.50;;;8.67;;
3068;SDS011;1545;51.728;8.796;2023-03-29T12:22:39;18.93;;;9.23;;
3068;SDS011;1545;51.728;8.796;2023-03-29T12:25:05;16.87;;;9.10;;
3068;SDS011;1545;51.728;8.796;2023-03-29T12:27:50;16.30;;;9.07;;
3068;SDS011;1545;51.728;8.796;2023-03-29T12:36:11;22.17;;;9.37;;
3068;SDS011;1545;51.728;8.796;2023-03-29T12:38:44;19.70;;;9.70;;
3068;SDS011;1545;51.728;8.796;2023-03-29T12:41:16;17.70;;;9.97;;
3068;SDS011;1545;51.728;8.796;2023-03-29T12:43:43;16.40;;;9.33;;
3068;SDS011;1545;51.728;8.796;2023-03-29T12:46:14;20.50;;;9.80;;
3068;SDS011;1545;51.728;8.796;2023-03-29T12:48:48;16.60;;;10.07;;
3068;SDS011;1545;51.728;8.796;2023-03-29T12:51:19;21.73;;;11.13;;
3068;SDS011;1545;51.728;8.796;2023-03-29T12:53:53;20.87;;;10.80;;
3068;SDS011;1545;51.728;8.796;2023-03-29T12:57:18;19.70;;;10.53;;
3068;SDS011;1545;51.728;8.796;2023-03-29T12:59:17;17.57;;;10.20;;
3068;SDS011;1545;51.728;8.796;2023-03-29T13:09:52;25.30;;;11.20;;
3068;SDS011;1545;51.728;8.796;2023-03-29T13:15:00;22.10;;;10.23;;
3068;SDS011;1545;51.728;8.796;2023-03-29T13:25:59;22.67;;;12.73;;
3068;SDS011;1545;51.728;8.796;2023-03-29T13:31:34;24.73;;;12.37;;
3068;SDS011;1545;51.728;8.796;2023-03-29T13:39:35;21.83;;;11.90;;
3068;SDS011;1545;51.728;8.796;2023-03-29T13:42:05;20.90;;;12.05;;
3068;SDS011;1545;51.728;8.796;2023-03-29T13:44:40;27.63;;;12.50;;
3068;SDS011;1545;51.728;8.796;2023-03-29T13:49:46;22.00;;;12.37;;
3068;SDS011;1545;51.728;8.796;2023-03-29T13:57:54;22.63;;;13.00;;
3068;SDS011;1545;51.728;8.796;2023-03-29T14:00:49;21.50;;;13.57;;
3068;SDS011;1545;51.728;8.796;2023-03-29T14:03:19;22.03;;;12.93;;
3068;SDS011;1545;51.728;8.796;2023-03-29T14:05:56;27.23;;;12.80;;
3068;SDS011;1545;51.728;8.796;2023-03-29T14:11:00;29.43;;;13.70;;
3068;SDS011;1545;51.728;8.796;2023-03-29T14:13:28;19.70;;;12.20;;
3068;SDS011;1545;51.728;8.796;2023-03-29T14:15:58;26.13;;;13.07;;
3068;SDS011;1545;51.728;8.796;2023-03-29T14:18:33;22.53;;;13.23;;
3068;SDS011;1545;51.728;8.796;2023-03-29T14:21:01;23.40;;;13.53;;
3068;SDS011;1545;51.728;8.796;2023-03-29T14:23:28;21.13;;;12.57;;
3068;SDS011;1545;51.728;8.796;2023-03-29T14:26:05;23.07;;;12.90;;
3068;SDS011;1545;51.728;8.796;2023-03-29T14:28:34;31.20;;;12.93;;
3068;SDS011;1545;51.728;8.796;2023-03-29T14:31:01;20.17;;;10.63;;
3068;SDS011;1545;51.728;8.796;2023-03-29T14:33:28;20.57;;;12.03;;
3068;SDS011;1545;51.728;8.796;2023-03-29T14:35:57;25.07;;;12.50;;
3068;SDS011;1545;51.728;8.796;2023-03-29T14:38:24;22.87;;;10.87;;
3068;SDS011;1545;51.728;8.796;2023-03-29T14:40:51;16.93;;;9.03;;
3068;SDS011;1545;51.728;8.796;2023-03-29T14:43:19;12.67;;;7.70;;
3068;SDS011;1545;51.728;8.796;2023-03-29T14:45:51;10.07;;;6.43;;
3068;SDS011;1545;51.728;8.796;2023-03-29T14:48:17;8.50;;;6.43;;
3068;SDS011;1545;51.728;8.796;2023-03-29T14:50:43;11.37;;;6.30;;
3068;SDS011;1545;51.728;8.796;2023-03-29T14:53:15;12.47;;;6.33;;
3068;SDS011;1545;51.728;8.796;2023-03-29T14:55:44;16.70;;;6.80;;
3068;SDS011;1545;51.728;8.796;2023-03-29T14:58:32;14.27;;;6.93;;
3068;SDS011;1545;51.728;8.796;2023-03-29T15:01:32;15.73;;;6.63;;
3068;SDS011;1545;51.728;8.796;2023-03-29T15:04:02;14.47;;;7.63;;
3068;SDS011;1545;51.728;8.796;2023-03-29T15:06:31;13.37;;;7.60;;
3068;SDS011;1545;51.728;8.796;2023-03-29T15:09:02;11.27;;;6.43;;
3068;SDS011;1545;51.728;8.796;2023-03-29T15:11:27;12.90;;;7.03;;
3068;SDS011;1545;51.728;8.796;2023-03-29T15:14:01;11.60;;;7.20;;
3068;SDS011;1545;51.728;8.796;2023-03-29T15:16:32;10.53;;;6.43;;
3068;SDS011;1545;51.728;8.796;2023-03-29T15:19:02;13.05;;;5.93;;
3068;SDS011;1545;51.728;8.796;2023-03-29T15:21:30;10.37;;;5.57;;
3068;SDS011;1545;51.728;8.796;2023-03-29T15:23:58;10.60;;;4.90;;
3068;SDS011;1545;51.728;8.796;2023-03-29T15:26:30;9.77;;;5.17;;
3068;SDS011;1545;51.728;8.796;2023-03-29T15:29:00;10.53;;;5.17;;
3068;SDS011;1545;51.728;8.796;2023-03-29T15:31:37;16.10;;;4.87;;
3068;SDS011;1545;51.728;8.796;2023-03-29T15:34:06;10.90;;;5.10;;
3068;SDS011;1545;51.728;8.796;2023-03-29T15:36:32;9.03;;;5.00;;
3068;SDS011;1545;51.728;8.796;2023-03-29T15:38:58;13.87;;;6.30;;
3068;SDS011;1545;51.728;8.796;2023-03-29T15:41:24;12.80;;;5.43;;
3068;SDS011;1545;51.728;8.796;2023-03-29T15:43:51;10.20;;;5.30;;
3068;SDS011;1545;51.728;8.796;2023-03-29T15:46:20;11.53;;;5.87;;
3068;SDS011;1545;51.728;8.796;2023-03-29T15:48:46;9.67;;;4.97;;
3068;SDS011;1545;51.728;8.796;2023-03-29T15:51:12;11.57;;;5.30;;
3068;SDS011;1545;51.728;8.796;2023-03-29T15:53:37;11.83;;;5.70;;
3068;SDS011;1545;51.728;8.796;2023-03-29T15:56:04;13.07;;;5.60;;
3068;SDS011;1545;51.728;8.796;2023-03-29T15:58:32;11.40;;;5.93;;
3068;SDS011;1545;51.728;8.796;2023-03-29T16:03:59;10.63;;;5.57;;
3068;SDS011;1545;51.728;8.796;2023-03-29T16:06:29;10.90;;;5.80;;
3068;SDS011;1545;51.728;8.796;2023-03-29T16:08:55;9.77;;;5.83;;
3068;SDS011;1545;51.728;8.796;2023-03-29T16:11:21;11.87;;;6.10;;
3068;SDS011;1545;51.728;8.796;2023-03-29T16:13:47;11.80;;;6.17;;
3068;SDS011;1545;51.728;8.796;2023-03-29T16:16:13;16.93;;;6.13;;
3068;SDS011;1545;51.728;8.796;2023-03-29T16:18:39;17.07;;;7.63;;
3068;SDS011;1545;51.728;8.796;2023-03-29T16:21:04;11.70;;;5.47;;
3068;SDS011;1545;51.728;8.796;2023-03-29T16:23:30;13.87;;;5.40;;
3068;SDS011;1545;51.728;8.796;2023-03-29T16:25:56;11.97;;;5.13;;
3068;SDS011;1545;51.728;8.796;2023-03-29T16:28:23;10.27;;;5.57;;
3068;SDS011;1545;51.728;8.796;2023-03-29T16:30:48;8.57;;;5.27;;
3068;SDS011;1545;51.728;8.796;2023-03-29T16:33:14;10.23;;;5.77;;
3068;SDS011;1545;51.728;8.796;2023-03-29T16:35:40;11.27;;;6.40;;
3068;SDS011;1545;51.728;8.796;2023-03-29T16:38:06;14.30;;;6.00;;
3068;SDS011;1545;51.728;8.796;2023-03-29T16:40:33;11.97;;;5.23;;
3068;SDS011;1545;51.728;8.796;2023-03-29T16:42:58;11.83;;;5.33;;
3068;SDS011;1545;51.728;8.796;2023-03-29T16:45:24;11.50;;;5.77;;
3068;SDS011;1545;51.728;8.796;2023-03-29T16:47:49;9.53;;;5.90;;
3068;SDS011;1545;51.728;8.796;2023-03-29T16:50:16;13.23;;;5.83;;
3068;SDS011;1545;51.728;8.796;2023-03-29T16:52:43;10.63;;;5.40;;
3068;SDS011;1545;51.728;8.796;2023-03-29T16:55:09;9.00;;;5.10;;
3068;SDS011;1545;51.728;8.796;2023-03-29T16:57:36;10.83;;;6.27;;
3068;SDS011;1545;51.728;8.796;2023-03-29T17:00:03;12.33;;;6.20;;
3068;SDS011;1545;51.728;8.796;2023-03-29T17:02:31;17.50;;;6.60;;
3068;SDS011;1545;51.728;8.796;2023-03-29T17:04:56;13.40;;;7.63;;
3068;SDS011;1545;51.728;8.796;2023-03-29T17:07:22;13.27;;;6.40;;
3068;SDS011;1545;51.728;8.796;2023-03-29T17:09:47;11.63;;;6.63;;
3068;SDS011;1545;51.728;8.796;2023-03-29T17:12:13;10.70;;;6.50;;
3068;SDS011;1545;51.728;8.796;2023-03-29T17:14:38;9.80;;;6.07;;
3068;SDS011;1545;51.728;8.796;2023-03-29T17:17:05;9.20;;;6.50;;